Time;durP1;ratioP1;P1;durP2;ratioP2;P2;SDS_P1;SDS_P2;PMS_P1;PMS_P2;Temp;Humidity;BMP_temperature;BMP_pressure;BME280_temperature;BME280_humidity;BME280_pressure;Samples;Min_cycle;Max_cycle;Signal;HPM_P1;HPM_P2
2021/09/05 00:02:21;;;;;;;0.40;0.30;;;16.30;99.90;;;;;;5010953;28;20893;-70
2021/09/05 00:04:46;;;;;;;0.40;0.20;;;16.30;99.90;;;;;;5025654;28;20426;-70
2021/09/05 00:07:12;;;;;;;0.40;0.20;;;16.20;99.90;;;;;;5010734;28;20413;-70
2021/09/05 00:09:38;;;;;;;0.40;0.30;;;16.10;99.90;;;;;;5010463;28;20853;-70
2021/09/05 00:12:05;;;;;;;0.40;0.20;;;16.10;99.90;;;;;;5011234;28;20385;-70
2021/09/05 00:14:31;;;;;;;0.40;0.20;;;16.10;99.90;;;;;;5010509;28;20403;-76
2021/09/05 00:16:56;;;;;;;0.40;0.20;;;16.20;99.90;;;;;;5016704;28;20754;-70
2021/09/05 00:19:22;;;;;;;0.40;0.30;;;16.20;99.90;;;;;;5030813;28;20863;-70
2021/09/05 00:21:47;;;;;;;0.40;0.25;;;16.20;99.90;;;;;;5030167;28;20419;-70
2021/09/05 00:24:13;;;;;;;0.40;0.20;;;16.10;99.90;;;;;;5031091;28;20854;-71
2021/09/05 00:26:39;;;;;;;0.40;0.20;;;16.10;99.90;;;;;;5030119;28;20541;-70
2021/09/05 00:29:05;;;;;;;0.40;0.20;;;15.90;99.90;;;;;;5031037;28;20795;-70
2021/09/05 00:31:30;;;;;;;0.40;0.30;;;15.90;99.90;;;;;;5030649;28;20414;-76
2021/09/05 00:34:00;;;;;;;0.40;0.30;;;15.90;99.90;;;;;;5030679;28;20394;-70
2021/09/05 00:36:26;;;;;;;0.40;0.20;;;15.80;99.90;;;;;;5030667;28;20464;-70
2021/09/05 00:38:52;;;;;;;0.40;0.20;;;15.90;99.90;;;;;;5030031;28;20379;-71
2021/09/05 00:41:18;;;;;;;0.40;0.20;;;15.90;99.90;;;;;;5030527;28;20383;-70
2021/09/05 00:44:04;;;;;;;0.40;0.20;;;15.80;99.90;;;;;;5030101;28;20394;-70
2021/09/05 00:46:31;;;;;;;0.40;0.20;;;15.80;99.90;;;;;;5030374;28;20399;-71
2021/09/05 00:48:57;;;;;;;0.40;0.20;;;15.80;99.90;;;;;;5031051;28;20371;-70
2021/09/05 00:51:31;;;;;;;0.40;0.30;;;15.80;99.90;;;;;;5030894;28;20720;-70
2021/09/05 00:54:01;;;;;;;0.40;0.20;;;15.80;99.90;;;;;;5031200;28;20483;-70
2021/09/05 00:56:35;;;;;;;0.40;0.20;;;15.70;99.90;;;;;;5030624;28;20429;-70
2021/09/05 00:59:05;;;;;;;0.40;0.20;;;15.70;99.90;;;;;;5031239;28;20385;-70
2021/09/05 01:01:31;;;;;;;0.40;0.20;;;15.70;99.90;;;;;;5030204;28;20415;-71
2021/09/05 01:03:56;;;;;;;0.40;0.20;;;15.70;99.90;;;;;;5030953;28;20421;-70
2021/09/05 01:06:22;;;;;;;0.40;0.20;;;15.80;99.90;;;;;;5030845;28;20568;-70
2021/09/05 01:08:48;;;;;;;0.40;0.20;;;15.70;99.90;;;;;;5030329;28;20391;-70
2021/09/05 01:11:15;;;;;;;0.40;0.20;;;15.70;99.90;;;;;;5030714;28;20436;-70
2021/09/05 01:13:41;;;;;;;0.40;0.20;;;15.70;99.90;;;;;;5029984;28;20441;-70
2021/09/05 01:16:26;;;;;;;0.40;0.20;;;15.70;99.90;;;;;;5030656;28;20376;-70
2021/09/05 01:18:52;;;;;;;0.40;0.20;;;15.60;99.90;;;;;;5025584;28;20786;-71
2021/09/05 01:21:18;;;;;;;0.40;0.30;;;15.60;99.90;;;;;;5009183;28;20400;-70
2021/09/05 01:23:44;;;;;;;0.40;0.20;;;15.60;99.90;;;;;;5009850;28;20423;-70
2021/09/05 01:26:12;;;;;;;0.40;0.30;;;15.50;99.90;;;;;;5010556;28;20413;-70
2021/09/05 01:28:38;;;;;;;0.40;0.20;;;15.60;99.90;;;;;;5009682;28;20439;-70
2021/09/05 01:31:03;;;;;;;0.40;0.20;;;15.60;99.90;;;;;;5010217;28;20385;-70
2021/09/05 01:33:29;;;;;;;0.40;0.20;;;15.60;99.90;;;;;;5010643;28;20745;-70
2021/09/05 01:35:55;;;;;;;0.40;0.20;;;15.70;99.90;;;;;;5009523;28;20436;-70
2021/09/05 01:38:20;;;;;;;0.40;0.30;;;15.60;99.90;;;;;;5010025;28;20408;-70
2021/09/05 01:40:46;;;;;;;0.40;0.20;;;15.50;99.90;;;;;;5009474;28;20888;-70
2021/09/05 01:43:12;;;;;;;0.40;0.30;;;15.40;99.90;;;;;;5008962;28;20495;-70
2021/09/05 01:45:37;;;;;;;0.40;0.20;;;15.40;99.90;;;;;;5011840;28;20389;-70
2021/09/05 01:48:03;;;;;;;0.40;0.20;;;15.40;99.90;;;;;;5013780;28;20481;-69
2021/09/05 01:50:29;;;;;;;0.40;0.30;;;15.40;99.90;;;;;;5014118;28;20385;-69
2021/09/05 01:52:54;;;;;;;0.40;0.30;;;15.30;99.90;;;;;;5012917;28;20395;-69
2021/09/05 01:55:20;;;;;;;0.40;0.20;;;15.40;99.90;;;;;;5013994;28;20384;-68
2021/09/05 01:57:46;;;;;;;0.40;0.30;;;15.30;99.90;;;;;;5012729;28;20730;-69
2021/09/05 02:00:12;;;;;;;0.40;0.20;;;15.30;99.90;;;;;;5013892;28;20782;-69
2021/09/05 02:02:37;;;;;;;0.40;0.20;;;15.30;99.90;;;;;;5012487;28;20412;-73
2021/09/05 02:05:03;;;;;;;0.40;0.20;;;15.30;99.90;;;;;;5013821;28;20391;-69
2021/09/05 02:07:29;;;;;;;0.40;0.20;;;15.20;99.90;;;;;;5027910;28;20416;-69
2021/09/05 02:09:54;;;;;;;0.40;0.20;;;15.20;99.90;;;;;;5012974;28;20385;-68
2021/09/05 02:12:21;;;;;;;0.40;0.20;;;15.30;99.90;;;;;;5013090;28;20414;-68
2021/09/05 02:14:47;;;;;;;0.40;0.35;;;15.20;99.90;;;;;;5012885;28;20435;-69
2021/09/05 02:17:12;;;;;;;0.40;0.20;;;15.20;99.90;;;;;;5021342;28;20395;-68
2021/09/05 02:19:38;;;;;;;0.40;0.30;;;15.30;99.90;;;;;;5032304;28;20383;-72
2021/09/05 02:22:04;;;;;;;0.40;0.20;;;15.20;99.90;;;;;;5033122;28;20433;-69
2021/09/05 02:24:29;;;;;;;0.40;0.20;;;15.10;99.90;;;;;;5033277;28;20746;-68
2021/09/05 02:26:55;;;;;;;0.40;0.20;;;15.20;99.90;;;;;;5032018;28;20383;-69
2021/09/05 02:29:20;;;;;;;0.40;0.20;;;15.20;99.90;;;;;;5032848;28;20422;-69
2021/09/05 02:31:46;;;;;;;0.40;0.20;;;15.10;99.90;;;;;;5032290;28;20422;-68
2021/09/05 02:34:12;;;;;;;0.40;0.20;;;15.10;99.90;;;;;;5033147;28;20494;-68
2021/09/05 02:36:37;;;;;;;0.40;0.20;;;15.10;99.90;;;;;;5032084;28;20399;-69
2021/09/05 02:39:04;;;;;;;0.40;0.40;;;15.10;99.90;;;;;;5031629;28;20387;-69
2021/09/05 02:41:29;;;;;;;0.40;0.20;;;15.30;99.90;;;;;;5032614;28;20894;-68
2021/09/05 02:43:55;;;;;;;0.40;0.30;;;15.30;99.90;;;;;;5031803;28;20387;-69
2021/09/05 02:46:21;;;;;;;0.40;0.20;;;15.30;99.90;;;;;;5032731;28;20391;-69
2021/09/05 02:48:46;;;;;;;0.40;0.20;;;15.30;99.90;;;;;;5030562;28;20395;-69
2021/09/05 02:51:12;;;;;;;0.40;0.30;;;15.30;99.90;;;;;;5032279;28;20557;-68
2021/09/05 02:53:37;;;;;;;0.40;0.30;;;15.20;99.90;;;;;;5031853;28;20846;-74
2021/09/05 02:56:03;;;;;;;0.40;0.20;;;15.20;99.90;;;;;;5030584;28;20383;-69
2021/09/05 02:58:29;;;;;;;0.40;0.20;;;15.20;99.90;;;;;;5032807;28;20434;-69
2021/09/05 03:00:55;;;;;;;0.40;0.20;;;15.20;99.90;;;;;;5030396;28;20695;-69
2021/09/05 03:03:20;;;;;;;0.80;0.80;;;15.20;99.90;;;;;;5032238;28;20513;-69
2021/09/05 03:05:46;;;;;;;0.40;0.20;;;15.10;99.90;;;;;;5031692;28;20395;-69
2021/09/05 03:08:12;;;;;;;0.40;0.20;;;15.10;99.90;;;;;;5031921;28;20451;-68
2021/09/05 03:10:38;;;;;;;0.40;0.20;;;15.00;99.90;;;;;;5030919;28;20713;-74
2021/09/05 03:13:03;;;;;;;0.40;0.20;;;15.00;99.90;;;;;;5031351;28;20401;-69
2021/09/05 03:15:29;;;;;;;0.40;0.20;;;15.00;99.90;;;;;;5030988;28;20914;-68
2021/09/05 03:17:54;;;;;;;0.40;0.20;;;15.00;99.90;;;;;;5018108;28;20397;-69
2021/09/05 03:20:20;;;;;;;0.40;0.20;;;15.00;99.90;;;;;;5012227;28;20392;-68
2021/09/05 03:22:45;;;;;;;0.40;0.20;;;14.90;99.90;;;;;;5010738;28;20416;-69
2021/09/05 03:25:11;;;;;;;0.40;0.20;;;14.90;99.90;;;;;;5012161;28;20400;-69
2021/09/05 03:27:37;;;;;;;0.40;0.20;;;14.90;99.90;;;;;;5010921;28;20769;-69
2021/09/05 03:30:04;;;;;;;0.40;0.20;;;14.90;99.90;;;;;;5011828;28;20400;-69
2021/09/05 03:32:30;;;;;;;0.40;0.30;;;14.90;99.90;;;;;;5012142;28;20397;-69
2021/09/05 03:34:55;;;;;;;0.40;0.30;;;14.90;99.90;;;;;;5011339;28;20516;-69
2021/09/05 03:37:21;;;;;;;0.40;0.20;;;15.00;99.90;;;;;;5012519;28;20401;-69
2021/09/05 03:39:46;;;;;;;0.40;0.20;;;15.00;99.90;;;;;;5011268;28;20388;-69
2021/09/05 03:42:12;;;;;;;0.40;0.20;;;14.90;99.90;;;;;;5011723;28;20945;-68
2021/09/05 03:44:38;;;;;;;0.40;0.23;;;14.90;99.90;;;;;;5011743;28;20443;-68
2021/09/05 03:47:04;;;;;;;0.40;0.20;;;14.90;99.90;;;;;;5011306;28;20504;-69
2021/09/05 03:49:30;;;;;;;0.40;0.20;;;14.90;99.90;;;;;;5011334;28;20393;-68
2021/09/05 03:51:57;;;;;;;0.40;0.20;;;15.00;99.90;;;;;;5009592;28;20400;-68
2021/09/05 03:54:23;;;;;;;0.40;0.20;;;15.00;99.90;;;;;;5011716;28;20392;-69
2021/09/05 03:56:48;;;;;;;0.40;0.20;;;15.00;99.90;;;;;;5011338;28;20450;-69
2021/09/05 03:59:14;;;;;;;0.40;0.20;;;15.00;99.90;;;;;;5011476;28;20769;-68
2021/09/05 04:01:39;;;;;;;0.40;0.20;;;14.90;99.90;;;;;;5011646;28;20459;-69
2021/09/05 04:04:05;;;;;;;0.40;0.30;;;14.80;99.90;;;;;;5011308;28;20385;-69
2021/09/05 04:06:31;;;;;;;0.40;0.20;;;14.70;99.90;;;;;;5011032;28;20393;-69
2021/09/05 04:09:08;;;;;;;0.40;0.22;;;14.80;99.90;;;;;;5010666;28;20400;-69
2021/09/05 04:11:34;;;;;;;0.40;0.20;;;14.90;99.90;;;;;;5011927;28;20377;-68
2021/09/05 04:13:59;;;;;;;0.40;0.20;;;15.00;99.90;;;;;;5010450;28;20531;-69
2021/09/05 04:16:25;;;;;;;0.40;0.20;;;14.90;99.90;;;;;;5011307;28;20426;-69
2021/09/05 04:18:50;;;;;;;0.40;0.20;;;14.90;99.90;;;;;;5010859;28;20408;-69
2021/09/05 04:21:16;;;;;;;0.40;0.20;;;14.90;99.90;;;;;;5011423;28;20388;-69
2021/09/05 04:23:41;;;;;;;0.40;0.20;;;14.80;99.90;;;;;;5011487;28;20471;-74
2021/09/05 04:26:07;;;;;;;0.40;0.30;;;14.70;99.90;;;;;;5010799;28;20869;-68
2021/09/05 04:28:33;;;;;;;0.40;0.20;;;14.70;99.90;;;;;;5011689;28;20381;-69
2021/09/05 04:30:58;;;;;;;0.40;0.20;;;14.70;99.90;;;;;;5010642;28;20880;-68
2021/09/05 04:33:24;;;;;;;0.40;0.20;;;14.60;99.90;;;;;;5026852;28;20462;-69
2021/09/05 04:35:50;;;;;;;0.40;0.20;;;14.70;99.90;;;;;;5010508;28;20890;-69
2021/09/05 04:38:15;;;;;;;0.40;0.20;;;14.60;99.90;;;;;;5011741;28;20479;-69
2021/09/05 04:40:41;;;;;;;0.40;0.20;;;14.60;99.90;;;;;;5011469;28;20467;-69
2021/09/05 04:43:07;;;;;;;0.40;0.20;;;14.60;99.90;;;;;;5010795;28;20876;-69
2021/09/05 04:45:32;;;;;;;0.40;0.20;;;14.70;99.90;;;;;;5011303;28;20427;-69
2021/09/05 04:47:58;;;;;;;0.40;0.20;;;14.70;99.90;;;;;;5010151;28;20448;-69
2021/09/05 04:50:24;;;;;;;0.40;0.30;;;14.70;99.90;;;;;;5010856;28;20400;-71
2021/09/05 04:52:49;;;;;;;0.40;0.20;;;14.70;99.90;;;;;;5010216;28;20389;-69
2021/09/05 04:55:15;;;;;;;0.40;0.20;;;14.50;99.90;;;;;;5011170;28;20377;-69
2021/09/05 04:57:40;;;;;;;0.40;0.20;;;14.50;99.90;;;;;;5011036;28;20797;-68
2021/09/05 05:00:07;;;;;;;0.40;0.20;;;14.50;99.90;;;;;;5010007;28;20428;-68
2021/09/05 05:02:32;;;;;;;0.40;0.20;;;14.40;99.90;;;;;;5010535;28;20762;-68
2021/09/05 05:04:58;;;;;;;0.40;0.20;;;14.40;99.90;;;;;;5010322;28;20439;-69
2021/09/05 05:07:23;;;;;;;0.40;0.20;;;14.50;99.90;;;;;;5010982;28;20428;-69
2021/09/05 05:09:53;;;;;;;0.40;0.20;;;14.60;99.90;;;;;;5010116;28;20471;-69
2021/09/05 05:12:19;;;;;;;0.40;0.30;;;14.70;99.90;;;;;;5011011;28;20722;-69
2021/09/05 05:14:44;;;;;;;0.40;0.20;;;14.70;99.90;;;;;;5011176;28;20404;-74
2021/09/05 05:17:10;;;;;;;0.40;0.30;;;14.60;99.90;;;;;;5019711;28;20453;-68
2021/09/05 05:19:36;;;;;;;0.40;0.20;;;14.50;99.90;;;;;;5021472;28;20449;-69
2021/09/05 05:22:01;;;;;;;0.40;0.20;;;14.60;99.90;;;;;;5032546;28;20442;-69
2021/09/05 05:24:28;;;;;;;0.40;0.20;;;14.70;99.90;;;;;;5034424;28;20402;-69
2021/09/05 05:26:53;;;;;;;0.40;0.20;;;14.80;99.90;;;;;;5033713;28;20445;-69
2021/09/05 05:29:19;;;;;;;0.40;0.20;;;14.80;99.90;;;;;;5033926;28;20859;-72
2021/09/05 05:31:45;;;;;;;0.40;0.30;;;14.80;99.90;;;;;;5033041;28;20402;-69
2021/09/05 05:34:10;;;;;;;0.40;0.20;;;14.80;99.90;;;;;;5032865;28;20391;-69
2021/09/05 05:36:36;;;;;;;0.40;0.23;;;14.70;99.90;;;;;;5032397;28;20454;-69
2021/09/05 05:39:02;;;;;;;0.40;0.20;;;14.60;99.90;;;;;;5032379;28;20418;-69
2021/09/05 05:41:27;;;;;;;0.40;0.20;;;14.70;99.90;;;;;;5033488;28;20387;-69
2021/09/05 05:43:53;;;;;;;0.40;0.20;;;14.80;99.90;;;;;;5033863;28;20383;-70
2021/09/05 05:46:19;;;;;;;0.40;0.30;;;14.80;99.90;;;;;;5033311;28;20752;-69
2021/09/05 05:48:44;;;;;;;0.40;0.20;;;14.80;99.90;;;;;;5031306;28;20470;-69
2021/09/05 05:51:10;;;;;;;0.40;0.20;;;14.70;99.90;;;;;;5021964;28;20400;-70
2021/09/05 05:53:36;;;;;;;0.40;0.20;;;15.00;99.90;;;;;;5031320;28;20437;-70
2021/09/05 05:56:02;;;;;;;0.40;0.20;;;14.90;99.90;;;;;;5013944;28;20443;-70
2021/09/05 05:58:28;;;;;;;0.40;0.20;;;14.90;99.90;;;;;;5013815;28;20865;-70
2021/09/05 06:00:54;;;;;;;0.40;0.30;;;15.00;99.90;;;;;;5013292;28;20389;-70
2021/09/05 06:03:21;;;;;;;0.40;0.20;;;15.10;99.90;;;;;;5013770;28;20412;-70
2021/09/05 06:05:47;;;;;;;0.40;0.20;;;15.10;99.90;;;;;;5013944;28;20523;-69
2021/09/05 06:08:14;;;;;;;0.40;0.20;;;15.10;99.90;;;;;;5014388;28;21014;-69
2021/09/05 06:10:39;;;;;;;0.40;0.20;;;15.20;99.90;;;;;;5014336;28;20440;-69
2021/09/05 06:13:05;;;;;;;0.40;0.20;;;15.20;99.90;;;;;;5013362;28;20477;-69
2021/09/05 06:15:30;;;;;;;0.40;0.30;;;15.10;99.90;;;;;;5014285;28;20380;-70
2021/09/05 06:17:56;;;;;;;0.40;0.20;;;15.20;99.90;;;;;;5026486;28;20403;-69
2021/09/05 06:20:22;;;;;;;0.40;0.20;;;15.30;99.90;;;;;;5033739;28;20380;-69
2021/09/05 06:22:47;;;;;;;0.40;0.30;;;15.40;99.90;;;;;;5033630;28;20498;-69
2021/09/05 06:25:13;;;;;;;0.40;0.20;;;15.40;99.90;;;;;;5032597;28;20937;-70
2021/09/05 06:27:39;;;;;;;0.40;0.20;;;15.40;99.90;;;;;;5033853;28;20376;-70
2021/09/05 06:30:05;;;;;;;0.40;0.20;;;15.50;99.90;;;;;;5031915;28;20466;-70
2021/09/05 06:32:31;;;;;;;0.40;0.20;;;15.70;99.90;;;;;;5032697;28;20497;-70
2021/09/05 06:34:56;;;;;;;0.40;0.20;;;15.70;99.90;;;;;;5033084;28;20388;-70
2021/09/05 06:37:23;;;;;;;0.40;0.20;;;15.80;99.90;;;;;;5033684;28;20440;-70
2021/09/05 06:39:48;;;;;;;0.40;0.20;;;15.90;99.90;;;;;;5033386;28;20405;-70
2021/09/05 06:42:15;;;;;;;0.40;0.20;;;16.00;99.90;;;;;;5033329;28;20402;-69
2021/09/05 06:44:40;;;;;;;0.40;0.20;;;16.00;99.90;;;;;;5033488;28;20398;-71
2021/09/05 06:47:06;;;;;;;0.40;0.20;;;16.00;99.90;;;;;;5032980;28;20376;-70
2021/09/05 06:49:32;;;;;;;0.40;0.20;;;16.00;99.90;;;;;;5033312;28;20379;-71
2021/09/05 06:51:58;;;;;;;0.47;0.27;;;16.00;99.90;;;;;;5024190;28;20491;-71
2021/09/05 06:54:24;;;;;;;0.40;0.30;;;16.20;99.90;;;;;;5030604;28;20461;-71
2021/09/05 06:56:49;;;;;;;0.40;0.20;;;16.10;99.90;;;;;;5032900;28;20383;-71
2021/09/05 06:59:15;;;;;;;0.40;0.30;;;16.30;99.90;;;;;;5012981;28;20388;-70
2021/09/05 07:01:41;;;;;;;0.40;0.20;;;16.40;99.90;;;;;;5012839;28;20420;-70
2021/09/05 07:04:07;;;;;;;0.40;0.20;;;16.50;99.90;;;;;;5012257;28;20393;-70
2021/09/05 07:06:33;;;;;;;0.40;0.20;;;16.50;99.90;;;;;;5029118;28;20384;-70
2021/09/05 07:08:59;;;;;;;0.40;0.20;;;16.60;99.90;;;;;;5031799;28;20455;-70
2021/09/05 07:11:24;;;;;;;0.40;0.20;;;16.70;99.90;;;;;;5015198;28;20439;-70
2021/09/05 07:13:50;;;;;;;0.40;0.20;;;16.70;99.90;;;;;;5012882;28;20435;-70
2021/09/05 07:16:16;;;;;;;0.40;0.30;;;16.80;99.90;;;;;;5012084;28;20464;-70
2021/09/05 07:18:41;;;;;;;0.40;0.20;;;16.90;99.90;;;;;;5012567;28;20388;-70
2021/09/05 07:21:07;;;;;;;0.40;0.20;;;17.00;99.90;;;;;;5011834;28;20385;-70
2021/09/05 07:23:33;;;;;;;0.40;0.20;;;17.00;99.90;;;;;;5012749;28;20440;-70
2021/09/05 07:26:02;;;;;;;0.40;0.20;;;17.10;99.90;;;;;;5011652;28;20389;-70
2021/09/05 07:28:32;;;;;;;0.40;0.30;;;17.30;99.90;;;;;;5012639;28;20451;-70
2021/09/05 07:30:58;;;;;;;0.40;0.30;;;17.30;99.90;;;;;;5026725;28;20403;-71
2021/09/05 07:33:24;;;;;;;0.40;0.30;;;17.70;99.90;;;;;;5012581;28;20483;-69
2021/09/05 07:35:49;;;;;;;0.40;0.30;;;17.90;99.90;;;;;;5027612;28;20468;-69
2021/09/05 07:38:15;;;;;;;0.40;0.20;;;18.00;99.90;;;;;;5011778;28;21069;-69
2021/09/05 07:40:40;;;;;;;0.40;0.20;;;18.00;99.90;;;;;;5027429;28;20385;-69
2021/09/05 07:43:06;;;;;;;0.40;0.20;;;18.00;99.90;;;;;;5011925;28;20492;-70
2021/09/05 07:45:33;;;;;;;0.40;0.30;;;18.10;99.90;;;;;;5021942;28;20414;-69
2021/09/05 07:47:59;;;;;;;0.40;0.20;;;18.10;99.90;;;;;;5019623;28;20387;-69
2021/09/05 07:50:25;;;;;;;0.40;0.20;;;18.20;99.90;;;;;;5020602;28;20455;-70
2021/09/05 07:52:50;;;;;;;0.40;0.20;;;18.30;99.90;;;;;;5028276;28;20387;-70
2021/09/05 07:55:16;;;;;;;0.40;0.30;;;18.50;99.90;;;;;;5021538;28;20518;-69
2021/09/05 07:57:42;;;;;;;0.40;0.20;;;18.50;99.90;;;;;;5020376;28;20377;-70
2021/09/05 08:00:09;;;;;;;0.40;0.20;;;18.50;99.90;;;;;;5019649;28;20441;-69
2021/09/05 08:02:35;;;;;;;0.40;0.20;;;18.60;99.90;;;;;;5019183;28;20902;-70
2021/09/05 08:05:00;;;;;;;0.40;0.20;;;18.70;99.90;;;;;;5018441;28;20426;-68
2021/09/05 08:07:26;;;;;;;0.40;0.20;;;18.80;99.90;;;;;;5018816;28;20414;-68
2021/09/05 08:09:52;;;;;;;0.40;0.22;;;18.80;99.90;;;;;;5020244;28;20389;-67
2021/09/05 08:12:18;;;;;;;0.40;0.20;;;18.80;99.90;;;;;;5025405;28;20390;-69
2021/09/05 08:14:43;;;;;;;0.40;0.30;;;19.00;99.90;;;;;;5014714;28;20376;-68
2021/09/05 08:17:09;;;;;;;0.40;0.20;;;19.10;99.90;;;;;;5027993;28;20383;-67
2021/09/05 08:19:35;;;;;;;0.40;0.20;;;19.20;99.90;;;;;;5023815;28;20383;-68
2021/09/05 08:22:00;;;;;;;0.40;0.20;;;19.30;99.90;;;;;;5028177;28;20416;-72
